Terminal Aerodrome Forecast
Issued by NWS

Home | Current Version | Previous Version | Text Only | Print | Product List | Glossary On
Versions: 1 2 3 4 5 6 7 8 9 10 11 12 13 14 15 16 17 18 19 20 21 22 23 24 25 26
000
FTUS43 KLOT 302328
TAFGYY
TAF
KGYY 302328Z 0100/0124 02012KT 2SM -SHRA BR OVC002
      TEMPO 0101/0104 3/4SM TSRA OVC004CB
     FM010600 18010KT P6SM SCT015 OVC025
     FM011500 21020G33KT P6SM VCSH OVC020
      TEMPO 0119/0123 5SM -SHRA OVC015=

USA.gov is the U.S. government's official web portal to all federal, state and local government web resources and services.